Time;durP1;ratioP1;P1;durP2;ratioP2;P2;SDS_P1;SDS_P2;PMS_P1;PMS_P2;Temp;Humidity;BMP_temperature;BMP_pressure;BME280_temperature;BME280_humidity;BME280_pressure;Samples;Min_cycle;Max_cycle;Signal;HPM_P1;HPM_P2
2023/05/29 00:01:18;;;;;;;11.23;6.45;;;16.90;49.40;;;;;;4984283;28;114660;-79
2023/05/29 00:03:45;;;;;;;8.10;5.88;;;16.80;48.90;;;;;;4984160;28;115516;-79
2023/05/29 00:06:13;;;;;;;9.30;5.90;;;16.80;49.70;;;;;;5000431;28;114448;-77
2023/05/29 00:08:40;;;;;;;10.65;5.57;;;16.80;49.80;;;;;;4999804;28;115007;-78
2023/05/29 00:11:08;;;;;;;9.80;5.82;;;16.70;49.60;;;;;;4984474;28;114719;-78
2023/05/29 00:13:35;;;;;;;8.93;5.50;;;16.70;49.80;;;;;;4983652;28;114528;-78
2023/05/29 00:16:04;;;;;;;7.63;5.28;;;16.70;49.90;;;;;;4985284;28;114247;-77
2023/05/29 00:18:32;;;;;;;8.70;5.65;;;16.80;50.10;;;;;;4984350;28;115623;-77
2023/05/29 00:20:59;;;;;;;8.10;5.43;;;16.70;49.80;;;;;;4976053;28;114812;-77
2023/05/29 00:23:27;;;;;;;10.73;5.50;;;16.80;49.90;;;;;;4983174;28;114138;-77
2023/05/29 00:25:54;;;;;;;10.25;6.00;;;16.70;50.00;;;;;;5000843;28;114292;-78
2023/05/29 00:28:22;;;;;;;9.20;5.68;;;16.70;49.90;;;;;;4983623;28;114988;-77
2023/05/29 00:30:50;;;;;;;10.95;6.30;;;16.70;50.10;;;;;;4984461;28;114801;-77
2023/05/29 00:33:18;;;;;;;10.93;5.45;;;16.70;49.70;;;;;;4984916;28;114160;-77
2023/05/29 00:35:46;;;;;;;10.48;6.03;;;16.70;50.10;;;;;;4982729;28;114443;-77
2023/05/29 00:38:15;;;;;;;6.82;4.93;;;16.70;50.10;;;;;;4982734;28;114949;-78
2023/05/29 00:40:42;;;;;;;8.38;5.85;;;16.70;50.30;;;;;;4999093;28;116020;-77
2023/05/29 00:43:09;;;;;;;7.53;5.50;;;16.70;50.20;;;;;;5001336;28;114424;-78
2023/05/29 00:45:36;;;;;;;9.50;5.60;;;16.70;50.30;;;;;;5004720;28;114165;-78
2023/05/29 00:48:04;;;;;;;9.02;5.88;;;16.70;50.00;;;;;;4984460;28;115853;-78
2023/05/29 00:50:32;;;;;;;8.25;5.57;;;16.70;50.20;;;;;;4998091;28;114701;-78
2023/05/29 00:53:01;;;;;;;9.27;5.13;;;16.70;50.20;;;;;;5007853;28;119016;-77
2023/05/29 00:55:29;;;;;;;8.32;5.40;;;16.60;50.50;;;;;;4995229;28;114439;-77
2023/05/29 00:57:56;;;;;;;10.70;5.75;;;16.60;50.30;;;;;;5002284;28;115439;-78
2023/05/29 01:00:24;;;;;;;9.27;5.90;;;16.60;50.10;;;;;;4985531;28;115064;-77
2023/05/29 01:02:52;;;;;;;10.40;6.72;;;16.50;50.40;;;;;;4984927;28;117334;-78
2023/05/29 01:05:19;;;;;;;8.70;5.47;;;16.50;50.40;;;;;;4999399;28;114234;-77
2023/05/29 01:07:48;;;;;;;8.88;5.75;;;16.50;50.80;;;;;;4977775;28;117085;-77
2023/05/29 01:10:17;;;;;;;8.43;5.55;;;16.50;50.60;;;;;;4966186;28;114605;-78
2023/05/29 01:12:49;;;;;;;9.18;5.35;;;16.50;50.50;;;;;;4982948;28;114417;-78
2023/05/29 01:15:33;;;;;;;8.70;5.35;;;16.60;50.70;;;;;;4963741;28;114319;-78
2023/05/29 01:18:25;;;;;;;9.03;5.87;;;16.60;50.40;;;;;;4975683;28;117956;-77
2023/05/29 01:21:21;;;;;;;8.55;5.43;;;16.60;50.30;;;;;;5004581;28;114663;-77
2023/05/29 01:23:57;;;;;;;10.27;5.50;;;16.60;50.40;;;;;;4970382;28;114524;-77
2023/05/29 01:26:47;;;;;;;8.88;5.60;;;16.40;50.90;;;;;;5002484;28;114634;-77
2023/05/29 01:29:15;;;;;;;7.75;5.15;;;16.50;50.50;;;;;;5001298;28;115898;-78
2023/05/29 01:31:43;;;;;;;8.68;5.18;;;16.50;50.80;;;;;;4985627;28;114700;-77
2023/05/29 01:34:10;;;;;;;8.93;5.93;;;16.50;51.00;;;;;;5003028;28;114550;-77
2023/05/29 01:36:37;;;;;;;8.18;5.03;;;16.60;50.80;;;;;;5004062;28;115833;-77
2023/05/29 01:39:05;;;;;;;7.93;5.70;;;16.50;50.80;;;;;;4996617;28;116299;-77
2023/05/29 01:41:32;;;;;;;9.57;5.50;;;16.50;50.60;;;;;;4982880;28;114567;-77
2023/05/29 01:44:00;;;;;;;9.65;5.57;;;16.50;50.90;;;;;;4981979;28;114326;-77
2023/05/29 01:46:27;;;;;;;9.77;5.63;;;16.50;50.80;;;;;;5010307;28;114145;-77
2023/05/29 01:48:57;;;;;;;8.27;5.72;;;16.40;50.70;;;;;;5001794;28;114930;-77
2023/05/29 01:51:25;;;;;;;8.77;5.63;;;16.40;50.60;;;;;;5002758;28;114605;-77
2023/05/29 01:53:52;;;;;;;9.90;5.53;;;16.40;50.70;;;;;;5003129;28;114090;-78
2023/05/29 01:56:19;;;;;;;7.00;4.90;;;16.40;50.80;;;;;;5003036;28;114451;-77
2023/05/29 01:58:47;;;;;;;7.97;5.35;;;16.50;50.80;;;;;;4952075;28;117130;-78
2023/05/29 02:01:14;;;;;;;8.93;5.32;;;16.40;50.60;;;;;;4968570;28;114619;-77
2023/05/29 02:03:41;;;;;;;7.00;4.70;;;16.40;50.60;;;;;;5001958;28;114342;-77
2023/05/29 02:06:08;;;;;;;8.10;5.18;;;16.50;50.80;;;;;;5002585;28;114520;-78
2023/05/29 02:08:35;;;;;;;9.27;5.25;;;16.50;50.80;;;;;;5000911;28;115350;-77
2023/05/29 02:11:03;;;;;;;7.80;4.97;;;16.50;50.90;;;;;;5001163;28;114651;-77
2023/05/29 02:13:31;;;;;;;9.93;5.80;;;16.50;50.80;;;;;;5001658;28;114834;-78
2023/05/29 02:15:58;;;;;;;8.98;5.35;;;16.50;50.60;;;;;;5001634;28;114332;-78
2023/05/29 02:18:25;;;;;;;9.10;5.25;;;16.50;50.70;;;;;;4996024;28;115527;-78
2023/05/29 02:20:52;;;;;;;8.45;5.43;;;16.40;50.90;;;;;;4997581;28;114669;-77
2023/05/29 02:23:21;;;;;;;8.00;5.63;;;16.50;50.90;;;;;;4998045;28;117274;-77
2023/05/29 02:25:51;;;;;;;13.20;5.68;;;16.50;50.80;;;;;;4983156;28;114305;-77
2023/05/29 02:28:18;;;;;;;7.30;5.25;;;16.40;50.80;;;;;;4981428;28;115697;-78
2023/05/29 02:30:45;;;;;;;7.28;5.25;;;16.40;50.70;;;;;;4982094;28;114664;-78
2023/05/29 02:33:12;;;;;;;9.57;5.90;;;16.40;50.90;;;;;;4982203;28;114688;-77
2023/05/29 02:35:39;;;;;;;7.53;5.32;;;16.50;50.80;;;;;;4983295;28;114134;-77
2023/05/29 02:38:06;;;;;;;7.78;5.63;;;16.40;50.60;;;;;;4982540;28;115002;-78
2023/05/29 02:40:34;;;;;;;7.78;5.00;;;16.50;50.40;;;;;;4981859;28;115939;-78
2023/05/29 02:43:01;;;;;;;8.30;5.75;;;16.50;50.90;;;;;;4983098;28;114517;-78
2023/05/29 02:45:31;;;;;;;7.43;5.03;;;16.50;50.80;;;;;;4983183;28;114511;-79
2023/05/29 02:47:59;;;;;;;8.30;5.75;;;16.50;50.80;;;;;;4996165;28;115509;-77
2023/05/29 02:50:27;;;;;;;7.95;5.68;;;16.50;50.50;;;;;;5000555;28;114819;-77
2023/05/29 02:52:55;;;;;;;7.25;4.90;;;16.50;50.80;;;;;;5003112;28;114277;-77
2023/05/29 02:55:22;;;;;;;8.18;5.03;;;16.50;50.90;;;;;;5001707;28;114650;-78
2023/05/29 02:57:52;;;;;;;9.60;5.28;;;16.50;50.60;;;;;;5001604;28;115313;-77
2023/05/29 03:00:20;;;;;;;8.20;5.30;;;16.40;50.70;;;;;;5001611;28;114592;-77
2023/05/29 03:02:47;;;;;;;7.22;5.38;;;16.50;50.80;;;;;;4997749;28;114405;-77
2023/05/29 03:05:16;;;;;;;8.07;5.03;;;16.40;50.50;;;;;;4998123;28;114330;-77
2023/05/29 03:07:43;;;;;;;8.05;4.80;;;16.40;50.50;;;;;;4998806;28;117642;-77
2023/05/29 03:10:10;;;;;;;7.07;4.95;;;16.30;50.80;;;;;;5000204;28;114642;-78
2023/05/29 03:12:37;;;;;;;9.02;4.70;;;16.20;50.70;;;;;;5002514;28;114621;-78
2023/05/29 03:15:05;;;;;;;8.00;5.07;;;16.10;51.00;;;;;;5010753;28;114247;-79
2023/05/29 03:17:32;;;;;;;7.13;5.30;;;16.10;51.20;;;;;;4998927;28;114491;-78
2023/05/29 03:19:59;;;;;;;8.27;5.28;;;16.10;51.10;;;;;;4959916;28;116820;-78
2023/05/29 03:22:27;;;;;;;8.23;5.40;;;16.20;51.30;;;;;;4984334;28;114209;-78
2023/05/29 03:24:54;;;;;;;7.97;5.25;;;16.30;51.10;;;;;;5001091;28;114494;-79
2023/05/29 03:27:23;;;;;;;10.23;5.90;;;16.30;50.70;;;;;;4983208;28;115045;-78
2023/05/29 03:29:59;;;;;;;7.93;5.28;;;16.50;49.60;;;;;;4984422;28;115242;-79
2023/05/29 03:32:26;;;;;;;7.30;4.75;;;16.50;50.40;;;;;;4951898;28;114314;-78
2023/05/29 03:34:57;;;;;;;8.15;5.65;;;16.50;50.40;;;;;;5000571;28;114597;-78
2023/05/29 03:37:24;;;;;;;6.88;5.47;;;16.60;50.40;;;;;;4999963;28;115611;-78
2023/05/29 03:39:51;;;;;;;7.10;5.03;;;16.70;49.90;;;;;;5000078;28;114747;-78
2023/05/29 03:42:19;;;;;;;8.23;4.80;;;16.70;50.00;;;;;;5000458;28;114398;-78
2023/05/29 03:44:48;;;;;;;8.07;5.20;;;16.70;49.90;;;;;;4974134;28;114749;-78
2023/05/29 03:47:16;;;;;;;7.55;5.03;;;16.70;50.00;;;;;;4980776;28;115022;-78
2023/05/29 03:49:44;;;;;;;6.18;4.95;;;16.80;49.30;;;;;;4979166;28;114940;-78
2023/05/29 03:52:11;;;;;;;9.80;6.07;;;16.80;49.40;;;;;;4980358;28;114508;-78
2023/05/29 03:54:40;;;;;;;7.72;5.25;;;16.70;49.50;;;;;;4979981;28;114498;-78
2023/05/29 03:57:07;;;;;;;8.75;5.68;;;16.70;49.30;;;;;;4979415;28;115474;-78
2023/05/29 03:59:34;;;;;;;9.93;6.40;;;16.80;49.70;;;;;;4979432;28;114628;-78
2023/05/29 04:02:03;;;;;;;10.07;6.20;;;16.70;48.90;;;;;;4998952;28;116569;-78
2023/05/29 04:04:30;;;;;;;10.15;6.88;;;16.60;49.90;;;;;;5000794;28;114431;-78
2023/05/29 04:06:57;;;;;;;10.30;6.75;;;16.60;49.20;;;;;;4999728;28;114843;-78
2023/05/29 04:09:25;;;;;;;8.98;7.00;;;16.60;49.40;;;;;;4979168;28;114774;-78
2023/05/29 04:11:52;;;;;;;9.30;6.72;;;16.60;49.60;;;;;;4963458;28;114336;-78
2023/05/29 04:14:19;;;;;;;10.65;6.63;;;16.60;49.50;;;;;;5000409;28;114266;-77
2023/05/29 04:16:46;;;;;;;10.73;6.78;;;16.70;49.50;;;;;;4982894;28;115590;-78
2023/05/29 04:19:13;;;;;;;14.63;6.60;;;16.70;49.60;;;;;;4999536;28;114674;-78
2023/05/29 04:21:42;;;;;;;8.32;6.15;;;16.70;49.40;;;;;;4994058;28;114237;-78
2023/05/29 04:24:09;;;;;;;8.27;6.15;;;16.80;49.50;;;;;;4987215;28;116123;-78
2023/05/29 04:26:40;;;;;;;8.38;5.95;;;16.80;49.30;;;;;;5002387;28;115061;-78
2023/05/29 04:29:08;;;;;;;8.45;5.95;;;16.90;48.90;;;;;;5019874;28;115378;-78
2023/05/29 04:31:37;;;;;;;11.45;6.25;;;16.90;49.00;;;;;;4954876;28;114427;-78
2023/05/29 04:34:04;;;;;;;8.30;6.05;;;17.00;48.90;;;;;;5003550;28;114519;-78
2023/05/29 04:36:37;;;;;;;10.20;5.93;;;17.00;48.50;;;;;;5018676;28;115039;-78
2023/05/29 04:39:10;;;;;;;8.18;5.50;;;17.10;48.70;;;;;;5002515;28;114788;-78
2023/05/29 04:41:37;;;;;;;7.38;5.65;;;17.10;48.20;;;;;;5003653;28;114240;-78
2023/05/29 04:44:08;;;;;;;7.78;5.60;;;17.20;48.50;;;;;;4987427;28;114278;-78
2023/05/29 04:46:47;;;;;;;7.80;5.03;;;17.20;48.30;;;;;;4971941;28;115010;-80
2023/05/29 04:49:15;;;;;;;9.18;6.13;;;17.30;48.40;;;;;;5002120;28;115028;-78
2023/05/29 04:51:42;;;;;;;10.95;5.68;;;17.30;48.20;;;;;;5003564;28;115124;-78
2023/05/29 04:54:10;;;;;;;8.88;6.10;;;17.30;48.20;;;;;;5004423;28;114346;-78
2023/05/29 04:56:42;;;;;;;8.55;4.82;;;17.40;47.70;;;;;;4986303;28;117016;-78
2023/05/29 04:59:12;;;;;;;11.25;6.18;;;17.50;47.80;;;;;;4954520;28;116335;-78
2023/05/29 05:01:43;;;;;;;10.30;5.53;;;17.50;47.70;;;;;;4978054;28;115577;-78
2023/05/29 05:04:10;;;;;;;9.30;5.57;;;17.60;47.60;;;;;;4995218;28;114644;-78
2023/05/29 05:06:38;;;;;;;7.80;4.80;;;17.60;47.70;;;;;;5003291;28;114907;-78
2023/05/29 05:09:06;;;;;;;10.80;5.57;;;17.70;47.70;;;;;;5006951;28;114638;-78
2023/05/29 05:11:33;;;;;;;8.98;6.25;;;17.70;47.50;;;;;;5005754;28;116370;-78
2023/05/29 05:14:01;;;;;;;7.95;5.32;;;17.70;47.30;;;;;;4999872;28;114480;-78
2023/05/29 05:16:30;;;;;;;9.20;5.70;;;17.70;47.50;;;;;;4998897;28;114860;-77
2023/05/29 05:18:57;;;;;;;10.57;6.07;;;17.70;47.40;;;;;;4965719;28;115417;-77
2023/05/29 05:21:24;;;;;;;12.13;6.95;;;17.70;47.10;;;;;;4987168;28;115388;-78
2023/05/29 05:23:53;;;;;;;15.10;8.63;;;17.60;47.20;;;;;;4985692;28;114315;-77
2023/05/29 05:26:28;;;;;;;9.27;5.70;;;17.60;47.20;;;;;;4985580;28;115003;-78
2023/05/29 05:28:55;;;;;;;11.75;7.85;;;17.70;47.60;;;;;;5001927;28;114827;-78
2023/05/29 05:31:25;;;;;;;13.15;7.68;;;17.70;47.10;;;;;;4994949;28;114561;-77
2023/05/29 05:33:53;;;;;;;11.32;7.22;;;17.80;46.90;;;;;;4982251;28;114444;-77
2023/05/29 05:36:21;;;;;;;13.70;8.50;;;17.70;46.90;;;;;;4981871;28;114872;-78
2023/05/29 05:38:54;;;;;;;12.18;8.02;;;17.60;47.00;;;;;;4981830;28;114736;-78
2023/05/29 05:41:22;;;;;;;16.25;9.52;;;17.50;47.10;;;;;;4981974;28;114536;-77
2023/05/29 05:43:50;;;;;;;10.90;8.23;;;17.60;47.20;;;;;;4982700;28;114280;-77
2023/05/29 05:46:25;;;;;;;16.48;9.77;;;17.50;47.30;;;;;;4998139;28;114970;-78
2023/05/29 05:48:56;;;;;;;14.30;9.35;;;17.50;47.50;;;;;;4997324;28;114649;-77
2023/05/29 05:51:24;;;;;;;15.15;9.82;;;17.40;47.80;;;;;;4998049;28;114577;-77
2023/05/29 05:53:51;;;;;;;17.95;10.65;;;17.40;48.00;;;;;;4984006;28;114399;-78
2023/05/29 05:56:19;;;;;;;12.75;7.43;;;17.40;48.00;;;;;;5001099;28;118147;-77
2023/05/29 05:58:46;;;;;;;17.52;11.88;;;17.50;48.10;;;;;;4984708;28;115162;-77
2023/05/29 06:01:14;;;;;;;21.13;11.15;;;17.60;47.80;;;;;;5018561;28;114438;-78
2023/05/29 06:03:42;;;;;;;16.48;10.80;;;17.60;47.80;;;;;;5018912;28;114640;-78
2023/05/29 06:06:09;;;;;;;19.20;11.85;;;17.60;48.00;;;;;;5001441;28;115400;-78
2023/05/29 06:08:41;;;;;;;19.73;11.95;;;17.60;48.00;;;;;;4981668;28;114949;-78
2023/05/29 06:11:09;;;;;;;18.88;11.85;;;17.70;47.90;;;;;;4998863;28;114264;-77
2023/05/29 06:13:38;;;;;;;20.33;13.63;;;17.60;48.10;;;;;;4998460;28;114227;-78
2023/05/29 06:16:10;;;;;;;19.73;12.98;;;17.60;48.20;;;;;;4980374;28;114968;-78
2023/05/29 06:18:37;;;;;;;18.15;12.00;;;17.70;48.30;;;;;;4979950;28;117843;-78
2023/05/29 06:21:09;;;;;;;20.35;13.27;;;17.70;48.60;;;;;;4980125;28;114526;-79
2023/05/29 06:23:41;;;;;;;19.88;13.60;;;17.80;48.30;;;;;;4998687;28;114752;-80
2023/05/29 06:26:11;;;;;;;18.25;11.95;;;17.80;48.10;;;;;;5017352;28;114949;-79
2023/05/29 06:28:38;;;;;;;19.63;13.10;;;17.80;48.30;;;;;;5007349;28;115365;-78
2023/05/29 06:31:06;;;;;;;15.75;9.70;;;17.70;48.30;;;;;;4980477;28;114214;-78
2023/05/29 06:33:35;;;;;;;17.75;11.43;;;17.80;48.30;;;;;;4981459;28;114525;-78
2023/05/29 06:36:02;;;;;;;22.92;12.98;;;17.80;48.20;;;;;;4964407;28;115199;-78
2023/05/29 06:38:30;;;;;;;15.75;10.38;;;17.90;48.30;;;;;;4980842;28;115107;-78
2023/05/29 06:40:58;;;;;;;20.42;12.90;;;18.10;48.20;;;;;;5013776;28;114840;-80
2023/05/29 06:43:25;;;;;;;18.58;12.43;;;18.10;48.30;;;;;;4987835;28;115889;-78
2023/05/29 06:45:56;;;;;;;17.13;11.75;;;18.10;48.30;;;;;;4997019;28;114868;-79
2023/05/29 06:48:24;;;;;;;18.67;11.95;;;18.10;48.70;;;;;;4981266;28;114703;-79
2023/05/29 06:50:51;;;;;;;18.17;12.38;;;18.20;48.60;;;;;;5007805;28;115112;-79
2023/05/29 06:53:37;;;;;;;20.52;12.00;;;18.20;48.80;;;;;;5002440;28;114496;-79
2023/05/29 06:56:06;;;;;;;22.30;12.95;;;18.20;48.50;;;;;;4990561;28;114834;-79
2023/05/29 06:58:36;;;;;;;17.50;11.35;;;18.20;48.60;;;;;;5006146;28;115543;-79
2023/05/29 07:01:03;;;;;;;19.10;12.85;;;18.20;48.40;;;;;;4976566;28;114696;-78
2023/05/29 07:03:36;;;;;;;13.05;9.88;;;18.30;48.40;;;;;;4984799;28;114729;-79
2023/05/29 07:06:05;;;;;;;18.30;11.43;;;18.30;48.10;;;;;;4967546;28;116735;-78
2023/05/29 07:08:32;;;;;;;20.35;11.30;;;18.30;47.90;;;;;;4980544;28;114635;-77
2023/05/29 07:10:59;;;;;;;16.63;11.05;;;18.30;47.80;;;;;;4980717;28;114319;-78
2023/05/29 07:13:27;;;;;;;19.42;12.25;;;18.30;48.40;;;;;;4997042;28;114560;-78
2023/05/29 07:15:54;;;;;;;20.50;11.32;;;18.30;48.40;;;;;;4963311;28;116146;-79
2023/05/29 07:18:29;;;;;;;17.63;11.70;;;18.40;48.10;;;;;;4964112;28;114627;-79
2023/05/29 07:21:00;;;;;;;16.25;10.50;;;18.50;47.70;;;;;;4980256;28;114371;-79
2023/05/29 07:23:29;;;;;;;19.20;11.10;;;18.40;47.60;;;;;;4981809;28;114400;-79
2023/05/29 07:25:57;;;;;;;15.82;10.20;;;18.50;47.10;;;;;;4962160;28;118275;-78
2023/05/29 07:28:28;;;;;;;22.25;11.45;;;18.50;47.00;;;;;;4996025;28;115139;-78
2023/05/29 07:30:55;;;;;;;14.50;9.65;;;18.60;47.00;;;;;;4985578;28;118199;-79
2023/05/29 07:33:25;;;;;;;17.08;10.40;;;18.70;47.00;;;;;;4997142;28;114243;-79
2023/05/29 07:35:55;;;;;;;19.10;9.93;;;18.70;47.00;;;;;;4979961;28;116951;-79
2023/05/29 07:38:23;;;;;;;16.75;10.52;;;18.70;47.30;;;;;;4979713;28;114747;-78
2023/05/29 07:40:51;;;;;;;17.98;10.88;;;18.80;46.90;;;;;;4996654;28;114312;-79
2023/05/29 07:43:50;;;;;;;;;;;18.80;47.20;;;;;;4976440;28;114395;-79
2023/05/29 07:46:19;;;;;;;18.48;10.68;;;18.80;47.30;;;;;;4976192;28;115528;-78
2023/05/29 07:48:48;;;;;;;13.25;9.77;;;18.90;47.50;;;;;;4963949;28;115022;-78
2023/05/29 07:51:17;;;;;;;14.57;9.85;;;19.00;47.50;;;;;;4995580;28;114279;-78
2023/05/29 07:53:46;;;;;;;18.55;10.35;;;19.10;47.40;;;;;;5003896;28;114320;-79
2023/05/29 07:56:16;;;;;;;18.33;10.23;;;19.30;47.30;;;;;;5002013;28;115052;-79
2023/05/29 07:58:44;;;;;;;14.35;10.25;;;19.30;47.60;;;;;;5002889;28;115175;-78
2023/05/29 08:01:12;;;;;;;14.80;9.40;;;19.30;47.70;;;;;;5003615;28;114335;-79
2023/05/29 08:03:44;;;;;;;14.80;9.57;;;19.40;47.30;;;;;;5003566;28;114482;-79
2023/05/29 08:06:20;;;;;;;15.45;10.07;;;19.50;47.50;;;;;;4988197;28;114774;-78
2023/05/29 08:08:47;;;;;;;11.68;8.02;;;19.60;47.50;;;;;;5003232;28;114826;-78
2023/05/29 08:11:15;;;;;;;11.68;7.68;;;19.80;45.80;;;;;;5003430;28;114540;-79
2023/05/29 08:13:43;;;;;;;11.48;7.97;;;19.80;45.10;;;;;;4987809;28;114154;-79
2023/05/29 08:16:14;;;;;;;12.10;8.75;;;19.90;44.90;;;;;;5003101;28;114969;-79
2023/05/29 08:18:41;;;;;;;12.50;7.45;;;20.00;44.90;;;;;;5003219;28;115223;-79
2023/05/29 08:21:09;;;;;;;13.65;7.53;;;20.10;44.70;;;;;;5004649;28;114265;-79
2023/05/29 08:23:36;;;;;;;13.32;8.60;;;20.20;44.50;;;;;;5005105;28;114313;-79
2023/05/29 08:26:03;;;;;;;11.30;7.78;;;20.20;44.00;;;;;;5003863;28;114997;-79
2023/05/29 08:28:32;;;;;;;13.43;7.90;;;20.20;44.00;;;;;;5004296;28;114888;-79
2023/05/29 08:30:59;;;;;;;11.35;7.60;;;20.20;43.80;;;;;;5004853;28;114665;-78
2023/05/29 08:33:30;;;;;;;11.20;7.47;;;20.10;44.00;;;;;;5004414;28;114262;-79
2023/05/29 08:35:58;;;;;;;15.10;8.18;;;20.10;43.70;;;;;;5004116;28;114923;-79
2023/05/29 08:38:25;;;;;;;12.85;7.97;;;20.00;44.20;;;;;;5004347;28;115113;-79
2023/05/29 08:40:53;;;;;;;11.00;7.85;;;20.10;44.40;;;;;;5004534;28;114201;-78
2023/05/29 08:43:23;;;;;;;12.32;7.65;;;20.20;44.10;;;;;;4987027;28;114660;-79
2023/05/29 08:45:54;;;;;;;11.48;7.43;;;20.30;43.80;;;;;;5003220;28;116228;-79
2023/05/29 08:48:25;;;;;;;12.40;7.30;;;20.40;43.30;;;;;;5002195;28;115589;-78
2023/05/29 08:50:53;;;;;;;11.02;7.15;;;20.40;43.40;;;;;;4984747;28;114250;-79
2023/05/29 08:53:21;;;;;;;11.50;6.90;;;20.40;43.20;;;;;;4984845;28;114438;-79
2023/05/29 08:55:51;;;;;;;9.85;6.70;;;20.50;43.80;;;;;;4984013;28;115538;-79
2023/05/29 08:58:20;;;;;;;10.45;6.55;;;20.70;43.70;;;;;;5006240;28;115149;-79
2023/05/29 09:00:48;;;;;;;10.65;6.18;;;20.80;42.90;;;;;;5012391;28;114363;-80
2023/05/29 09:03:15;;;;;;;11.18;6.45;;;20.80;42.10;;;;;;4987319;28;114605;-79
2023/05/29 09:05:45;;;;;;;11.73;6.55;;;20.80;42.20;;;;;;5002445;28;114818;-78
2023/05/29 09:08:12;;;;;;;11.90;6.57;;;20.70;42.30;;;;;;5002567;28;114186;-79
2023/05/29 09:10:44;;;;;;;9.30;6.47;;;20.60;42.60;;;;;;4985938;28;114477;-78
2023/05/29 09:13:12;;;;;;;9.45;6.65;;;20.60;42.80;;;;;;5003265;28;114675;-79
2023/05/29 09:15:42;;;;;;;12.82;6.57;;;20.70;42.30;;;;;;5002284;28;115208;-78
2023/05/29 09:18:12;;;;;;;7.22;5.70;;;20.70;42.30;;;;;;5001625;28;115215;-78
2023/05/29 09:20:39;;;;;;;10.82;5.82;;;20.60;42.30;;;;;;5004079;28;114337;-79
2023/05/29 09:23:08;;;;;;;8.13;5.65;;;20.50;42.40;;;;;;5004116;28;114466;-79
2023/05/29 09:25:40;;;;;;;11.98;5.93;;;20.50;42.30;;;;;;5001314;28;116252;-78
2023/05/29 09:28:08;;;;;;;11.45;5.40;;;20.70;42.00;;;;;;5003717;28;115029;-79
2023/05/29 09:30:37;;;;;;;7.95;5.40;;;20.80;41.70;;;;;;4986600;28;114642;-78
2023/05/29 09:33:09;;;;;;;11.02;5.47;;;20.80;41.80;;;;;;4986224;28;114500;-79
2023/05/29 09:35:44;;;;;;;11.07;5.40;;;20.70;41.80;;;;;;4987104;28;116222;-79
2023/05/29 09:38:16;;;;;;;9.60;5.30;;;20.80;42.00;;;;;;4998273;28;114973;-79
2023/05/29 09:41:04;;;;;;;10.80;5.55;;;20.80;42.30;;;;;;4983557;28;115194;-78
2023/05/29 09:43:34;;;;;;;8.90;4.35;;;21.00;42.40;;;;;;4983889;28;115129;-79
2023/05/29 09:46:01;;;;;;;7.72;4.25;;;21.10;40.90;;;;;;4997942;28;115011;-79
2023/05/29 09:48:30;;;;;;;8.48;4.97;;;21.20;40.20;;;;;;4982920;28;114627;-79
2023/05/29 09:50:58;;;;;;;8.52;4.90;;;21.30;40.80;;;;;;4983362;28;114397;-78
2023/05/29 09:53:28;;;;;;;9.95;4.85;;;21.30;41.00;;;;;;4983675;28;114172;-78
2023/05/29 09:55:57;;;;;;;10.60;4.50;;;21.30;40.80;;;;;;4980757;28;117601;-79
2023/05/29 09:58:25;;;;;;;9.20;4.78;;;21.30;39.80;;;;;;4982977;28;114727;-79
2023/05/29 10:00:53;;;;;;;8.98;4.43;;;21.30;40.20;;;;;;4983041;28;114448;-79
2023/05/29 10:03:23;;;;;;;11.15;4.45;;;21.40;40.40;;;;;;4988103;28;115413;-78
2023/05/29 10:05:52;;;;;;;6.82;4.15;;;21.50;39.50;;;;;;5002908;28;114952;-79
2023/05/29 10:08:20;;;;;;;7.35;4.10;;;21.50;39.40;;;;;;5000620;28;115379;-79
2023/05/29 10:11:04;;;;;;;7.28;4.07;;;21.50;38.80;;;;;;5001639;28;114548;-80
2023/05/29 10:13:37;;;;;;;8.23;3.80;;;21.50;38.80;;;;;;5003367;28;114244;-78
2023/05/29 10:16:07;;;;;;;7.72;4.40;;;21.30;38.30;;;;;;5001066;28;115713;-79
2023/05/29 10:18:54;;;;;;;6.72;4.05;;;21.40;38.70;;;;;;5003071;28;114744;-78
2023/05/29 10:21:22;;;;;;;6.70;3.60;;;21.50;38.40;;;;;;4986842;28;114162;-78
2023/05/29 10:23:50;;;;;;;5.68;3.13;;;21.50;38.20;;;;;;5003469;28;114249;-79
2023/05/29 10:26:29;;;;;;;5.45;3.53;;;21.30;37.60;;;;;;5002105;28;119141;-79
2023/05/29 10:29:15;;;;;;;11.10;3.88;;;21.40;37.90;;;;;;4984506;28;115353;-78
2023/05/29 10:32:06;;;;;;;9.70;3.40;;;21.50;37.80;;;;;;5001294;28;114531;-79
2023/05/29 10:34:51;;;;;;;6.40;3.50;;;21.60;37.70;;;;;;4983362;28;114325;-80
2023/05/29 10:37:38;;;;;;;9.05;3.85;;;21.60;36.50;;;;;;4997120;28;115011;-79
2023/05/29 10:40:07;;;;;;;6.18;3.30;;;21.60;37.00;;;;;;4982358;28;114695;-79
2023/05/29 10:42:45;;;;;;;5.57;3.30;;;21.40;37.00;;;;;;4982582;28;114476;-79
2023/05/29 10:45:32;;;;;;;7.18;3.70;;;21.40;36.90;;;;;;4983174;28;114184;-79
2023/05/29 10:48:11;;;;;;;8.50;3.40;;;21.40;36.70;;;;;;5001563;28;117716;-78
2023/05/29 10:50:42;;;;;;;7.90;3.22;;;21.30;36.70;;;;;;5001627;28;114665;-79
2023/05/29 10:53:10;;;;;;;5.60;3.42;;;21.20;36.30;;;;;;5000779;28;114833;-79
2023/05/29 10:55:37;;;;;;;10.40;3.45;;;21.20;36.70;;;;;;5003445;28;114302;-79
2023/05/29 10:58:12;;;;;;;5.75;3.55;;;21.20;36.50;;;;;;5006298;28;114158;-79
2023/05/29 11:00:42;;;;;;;5.30;3.05;;;21.20;36.30;;;;;;5001070;28;115097;-77
2023/05/29 11:03:10;;;;;;;6.82;3.42;;;21.20;36.50;;;;;;5001223;28;114653;-79
2023/05/29 11:05:56;;;;;;;6.57;3.63;;;21.20;36.80;;;;;;5002625;28;114409;-78
2023/05/29 11:08:45;;;;;;;6.30;3.35;;;21.30;36.60;;;;;;5000532;28;115500;-78
2023/05/29 11:11:41;;;;;;;7.75;3.88;;;21.30;36.60;;;;;;5000323;28;115693;-79
2023/05/29 11:14:08;;;;;;;8.57;3.75;;;21.10;36.20;;;;;;5001413;28;118495;-79
2023/05/29 11:16:37;;;;;;;6.85;3.42;;;21.30;37.10;;;;;;5002083;28;115233;-78
2023/05/29 11:19:06;;;;;;;6.78;3.58;;;21.30;36.60;;;;;;5016524;28;115107;-78
2023/05/29 11:21:34;;;;;;;6.72;3.35;;;21.30;35.90;;;;;;4983943;28;114608;-80
2023/05/29 11:24:02;;;;;;;6.53;3.78;;;21.40;36.30;;;;;;5000521;28;114212;-78
2023/05/29 11:26:34;;;;;;;7.15;4.10;;;21.40;35.10;;;;;;5002665;28;114372;-78
2023/05/29 11:29:11;;;;;;;6.55;3.90;;;21.40;34.70;;;;;;4967830;28;117490;-79
2023/05/29 11:31:40;;;;;;;9.05;4.10;;;21.50;35.30;;;;;;5001457;28;116088;-78
2023/05/29 11:34:10;;;;;;;8.02;4.10;;;21.60;35.50;;;;;;5000267;28;114412;-78
2023/05/29 11:36:37;;;;;;;7.45;3.97;;;21.70;35.90;;;;;;5002317;28;114403;-80
2023/05/29 11:39:05;;;;;;;6.57;4.43;;;21.80;35.70;;;;;;4999991;28;117235;-78
2023/05/29 11:41:32;;;;;;;9.05;4.43;;;21.80;36.10;;;;;;4967685;28;114702;-78
2023/05/29 11:44:05;;;;;;;8.18;4.20;;;21.80;35.40;;;;;;4967341;28;114312;-79
2023/05/29 11:46:34;;;;;;;7.20;4.00;;;21.80;35.20;;;;;;4979348;28;114780;-78
2023/05/29 11:49:01;;;;;;;6.00;4.38;;;21.80;35.20;;;;;;4962560;28;115040;-78
2023/05/29 11:51:29;;;;;;;7.63;4.07;;;21.80;35.00;;;;;;4981260;28;115005;-78
2023/05/29 11:53:59;;;;;;;11.27;4.53;;;21.70;35.10;;;;;;4980243;28;114171;-79
2023/05/29 11:56:29;;;;;;;7.20;4.10;;;21.70;34.80;;;;;;4980797;28;114514;-79
2023/05/29 11:58:59;;;;;;;7.25;4.38;;;21.70;34.50;;;;;;4980825;28;115725;-77
2023/05/29 12:01:30;;;;;;;6.50;4.15;;;21.60;34.20;;;;;;4982905;28;115129;-79
2023/05/29 12:03:58;;;;;;;9.80;4.38;;;21.50;34.70;;;;;;5000062;28;114554;-79
2023/05/29 12:06:33;;;;;;;5.90;4.10;;;21.50;34.90;;;;;;4984381;28;117458;-79
2023/05/29 12:09:01;;;;;;;9.20;4.50;;;21.70;34.80;;;;;;5000629;28;115670;-79
2023/05/29 12:11:28;;;;;;;9.35;4.43;;;21.80;34.80;;;;;;4983584;28;114707;-79
2023/05/29 12:14:02;;;;;;;7.03;4.60;;;21.90;34.70;;;;;;5000433;28;114285;-78
2023/05/29 12:16:30;;;;;;;9.13;4.63;;;21.90;34.50;;;;;;4984704;28;114343;-78
2023/05/29 12:18:58;;;;;;;7.13;4.22;;;21.90;33.70;;;;;;4983586;28;117627;-78
2023/05/29 12:21:26;;;;;;;7.32;4.20;;;21.70;34.00;;;;;;5000646;28;114677;-79
2023/05/29 12:23:54;;;;;;;6.75;4.50;;;21.70;34.10;;;;;;4984271;28;114424;-78
2023/05/29 12:26:33;;;;;;;9.30;5.30;;;21.70;34.00;;;;;;4986464;28;114392;-79
2023/05/29 12:29:04;;;;;;;7.70;4.07;;;21.60;34.40;;;;;;4999460;28;116307;-79
2023/05/29 12:31:31;;;;;;;7.40;4.70;;;21.60;34.90;;;;;;4974524;28;115110;-79
2023/05/29 12:34:09;;;;;;;14.88;4.93;;;21.50;35.10;;;;;;4986518;28;114244;-78
2023/05/29 12:36:40;;;;;;;13.27;5.22;;;21.60;35.40;;;;;;5000138;28;114472;-79
2023/05/29 12:39:11;;;;;;;10.40;4.43;;;21.70;35.60;;;;;;4999354;28;115044;-79
2023/05/29 12:41:39;;;;;;;7.45;4.15;;;21.80;35.10;;;;;;4984143;28;114753;-79
2023/05/29 12:44:06;;;;;;;9.93;4.63;;;21.80;35.20;;;;;;4984662;28;114402;-79